Time;durP1;ratioP1;P1;durP2;ratioP2;P2;SDS_P1;SDS_P2;PMS_P1;PMS_P2;Temp;Humidity;BMP_temperature;BMP_pressure;BME280_temperature;BME280_humidity;BME280_pressure;Samples;Min_cycle;Max_cycle;Signal;HPM_P1;HPM_P2
2022/08/04 00:00:24;;;;;;;2.63;2.42;;;20.40;99.90;;;;;;4976464;28;20171;-77
2022/08/04 00:02:55;;;;;;;2.78;2.58;;;20.40;99.90;;;;;;4960360;28;20190;-77
2022/08/04 00:05:36;;;;;;;4.57;2.40;;;20.40;99.90;;;;;;4993614;28;20195;-77
2022/08/04 00:08:33;;;;;;;2.55;2.35;;;20.40;99.90;;;;;;4975933;28;20206;-77
2022/08/04 00:11:00;;;;;;;2.90;2.70;;;20.40;99.90;;;;;;4976303;28;20247;-77
2022/08/04 00:15:58;;;;;;;2.70;2.50;;;20.20;99.90;;;;;;5030561;23;20301;-75
2022/08/04 00:18:32;;;;;;;3.72;2.90;;;20.20;99.90;;;;;;4975671;28;20227;-75
2022/08/04 00:21:03;;;;;;;3.10;2.88;;;20.30;99.90;;;;;;4976238;28;20566;-75
2022/08/04 00:23:32;;;;;;;2.85;2.65;;;20.10;99.90;;;;;;4960342;28;20182;-75
2022/08/04 00:25:58;;;;;;;3.20;2.90;;;20.20;99.90;;;;;;4960203;28;20229;-75
2022/08/04 00:28:24;;;;;;;2.72;2.53;;;20.20;99.90;;;;;;4959451;28;20180;-75
2022/08/04 00:30:50;;;;;;;2.85;2.65;;;20.20;99.90;;;;;;4959701;28;20290;-75
2022/08/04 00:33:20;;;;;;;4.00;2.78;;;20.20;99.90;;;;;;4975810;28;20175;-75
2022/08/04 00:35:47;;;;;;;3.60;2.60;;;20.30;99.90;;;;;;4975610;28;20237;-75
2022/08/04 00:38:16;;;;;;;3.08;2.78;;;20.20;99.90;;;;;;4958872;28;20183;-75
2022/08/04 00:41:18;;;;;;;2.72;2.53;;;20.00;99.90;;;;;;4975684;28;20215;-75
2022/08/04 00:44:05;;;;;;;2.88;2.67;;;19.90;99.90;;;;;;4975773;28;20174;-75
2022/08/04 00:47:02;;;;;;;2.83;2.60;;;19.80;99.90;;;;;;4975324;28;20175;-75
2022/08/04 00:50:08;;;;;;;2.60;2.40;;;19.70;99.90;;;;;;4975458;28;20294;-75
2022/08/04 00:52:46;;;;;;;3.20;2.70;;;19.70;99.90;;;;;;4974670;28;20223;-75
2022/08/04 00:55:41;;;;;;;3.38;2.65;;;19.60;99.90;;;;;;4975412;28;20669;-75
2022/08/04 00:58:25;;;;;;;3.00;2.70;;;19.60;99.90;;;;;;4975209;28;20179;-75
2022/08/04 01:00:58;;;;;;;2.90;2.70;;;19.70;99.90;;;;;;4975317;28;20186;-75
2022/08/04 01:03:46;;;;;;;2.90;2.70;;;19.50;99.90;;;;;;4975266;28;20219;-75
2022/08/04 01:06:21;;;;;;;2.85;2.65;;;19.60;99.90;;;;;;4975068;28;20322;-75
2022/08/04 01:09:31;;;;;;;3.33;2.78;;;19.70;99.90;;;;;;4975419;28;20199;-75
2022/08/04 01:12:22;;;;;;;2.60;2.40;;;19.70;99.90;;;;;;4972249;28;20175;-75
2022/08/04 01:15:14;;;;;;;3.75;2.78;;;19.90;99.90;;;;;;4975097;28;20214;-77
2022/08/04 01:18:07;;;;;;;2.80;2.60;;;20.10;99.90;;;;;;4975104;28;20222;-75
2022/08/04 01:21:02;;;;;;;3.15;2.80;;;20.10;99.90;;;;;;4975329;28;20172;-74
2022/08/04 01:23:43;;;;;;;4.40;2.70;;;19.90;99.90;;;;;;4968471;28;20179;-77
2022/08/04 01:26:34;;;;;;;3.00;2.55;;;19.70;99.90;;;;;;4975039;28;20172;-75
2022/08/04 01:29:08;;;;;;;3.00;2.70;;;19.70;99.90;;;;;;4975089;28;20207;-75
2022/08/04 01:31:52;;;;;;;2.90;2.70;;;19.70;99.90;;;;;;4975342;28;20167;-75
2022/08/04 01:34:20;;;;;;;2.95;2.75;;;19.60;99.90;;;;;;4975240;28;20287;-75
2022/08/04 01:36:58;;;;;;;2.80;2.60;;;19.60;99.90;;;;;;4974841;28;20176;-74
2022/08/04 01:39:42;;;;;;;3.15;2.85;;;19.70;99.90;;;;;;4975065;28;20182;-75
2022/08/04 01:42:09;;;;;;;3.33;3.03;;;19.70;99.90;;;;;;4975039;28;20266;-75
2022/08/04 01:44:38;;;;;;;3.88;3.58;;;19.50;99.90;;;;;;4958747;28;20199;-75
2022/08/04 01:47:03;;;;;;;3.47;2.97;;;19.40;99.90;;;;;;4959148;28;20180;-75
2022/08/04 01:49:31;;;;;;;5.45;2.97;;;19.50;99.90;;;;;;4975415;28;20226;-75
2022/08/04 01:51:57;;;;;;;3.30;3.00;;;19.60;99.90;;;;;;4962537;28;20179;-75
2022/08/04 01:54:25;;;;;;;3.97;2.83;;;19.40;99.90;;;;;;4962441;28;20200;-75
2022/08/04 01:56:52;;;;;;;6.18;3.30;;;19.30;99.90;;;;;;4946477;28;20545;-74
2022/08/04 01:59:19;;;;;;;3.43;3.00;;;19.30;99.90;;;;;;4978586;28;20761;-75
2022/08/04 02:01:46;;;;;;;3.55;3.25;;;19.20;99.90;;;;;;4962368;28;20182;-77
2022/08/04 02:04:17;;;;;;;3.47;2.90;;;19.20;99.90;;;;;;4978364;28;20701;-75
2022/08/04 02:06:48;;;;;;;3.90;3.27;;;19.30;99.90;;;;;;4961985;28;20180;-75
2022/08/04 02:09:22;;;;;;;4.28;3.45;;;19.30;99.90;;;;;;4978521;28;20200;-75
2022/08/04 02:12:20;;;;;;;3.58;3.28;;;19.40;99.90;;;;;;4995798;28;20179;-75
2022/08/04 02:15:10;;;;;;;3.57;3.27;;;19.40;99.90;;;;;;4978140;28;20215;-76
2022/08/04 02:17:55;;;;;;;3.50;3.20;;;19.20;99.90;;;;;;4978106;28;20172;-75
2022/08/04 02:20:36;;;;;;;4.67;3.70;;;19.10;99.90;;;;;;4978159;28;20183;-75
2022/08/04 02:23:08;;;;;;;3.27;3.00;;;19.10;99.90;;;;;;4962046;28;20781;-75
2022/08/04 02:25:43;;;;;;;3.80;3.40;;;19.10;99.90;;;;;;4946189;28;20223;-75
2022/08/04 02:28:35;;;;;;;3.35;3.10;;;19.00;99.90;;;;;;4962598;28;20267;-74
2022/08/04 02:31:06;;;;;;;3.85;3.28;;;18.90;99.90;;;;;;4970066;28;20214;-75
2022/08/04 02:33:40;;;;;;;3.40;3.10;;;18.90;99.90;;;;;;4977796;28;20168;-75
2022/08/04 02:36:12;;;;;;;4.27;3.80;;;18.80;99.90;;;;;;4977800;28;20262;-75
2022/08/04 02:38:56;;;;;;;5.73;3.40;;;18.70;99.90;;;;;;4977875;28;20226;-75
2022/08/04 02:41:24;;;;;;;3.70;3.40;;;18.70;99.90;;;;;;4977954;28;20271;-75
2022/08/04 02:43:53;;;;;;;3.83;3.53;;;18.70;99.90;;;;;;4977547;28;20226;-77
2022/08/04 02:46:20;;;;;;;3.97;3.57;;;18.70;99.90;;;;;;4977379;28;20176;-75
2022/08/04 02:48:48;;;;;;;3.30;3.10;;;18.80;99.90;;;;;;4961658;28;20218;-76
2022/08/04 02:51:15;;;;;;;3.70;3.33;;;18.90;99.90;;;;;;4961842;28;20180;-74
2022/08/04 02:53:43;;;;;;;3.97;3.57;;;18.90;99.90;;;;;;4961688;28;20175;-75
2022/08/04 02:56:09;;;;;;;4.53;3.50;;;18.90;99.90;;;;;;4961268;28;20198;-75
2022/08/04 02:58:36;;;;;;;3.80;3.50;;;18.80;99.90;;;;;;4961247;28;20184;-75
2022/08/04 03:01:03;;;;;;;4.00;3.60;;;18.70;99.90;;;;;;4994335;28;20259;-75
2022/08/04 03:03:58;;;;;;;4.00;3.60;;;18.70;99.90;;;;;;4977526;28;20180;-76
2022/08/04 03:06:38;;;;;;;3.77;3.47;;;18.70;99.90;;;;;;4949880;28;20188;-75
2022/08/04 03:09:41;;;;;;;5.40;3.70;;;18.60;99.90;;;;;;4977154;28;20570;-75
2022/08/04 03:12:29;;;;;;;3.90;3.60;;;18.50;99.90;;;;;;4977110;28;20171;-76
2022/08/04 03:15:01;;;;;;;4.07;3.70;;;18.60;99.90;;;;;;4977281;28;20253;-76
2022/08/04 03:18:13;;;;;;;3.97;3.57;;;18.50;99.90;;;;;;4976818;28;20175;-74
2022/08/04 03:20:57;;;;;;;3.70;3.40;;;18.50;99.90;;;;;;4994425;28;20167;-75
2022/08/04 03:23:29;;;;;;;4.43;3.50;;;18.40;99.90;;;;;;4977002;28;20184;-75
2022/08/04 03:26:22;;;;;;;3.93;3.63;;;18.30;99.90;;;;;;4976989;28;20214;-74
2022/08/04 03:29:06;;;;;;;4.20;3.80;;;18.20;99.90;;;;;;4976789;28;20283;-75
2022/08/04 03:32:13;;;;;;;4.23;3.63;;;18.20;99.90;;;;;;4976888;28;20190;-75
2022/08/04 03:35:15;;;;;;;4.40;3.60;;;18.30;99.90;;;;;;4944618;28;20294;-75
2022/08/04 03:37:59;;;;;;;3.87;3.57;;;18.30;99.90;;;;;;4976596;28;20660;-75
2022/08/04 03:40:34;;;;;;;4.03;3.73;;;18.30;99.90;;;;;;4976590;28;20182;-75
2022/08/04 03:43:17;;;;;;;3.83;3.53;;;18.30;99.90;;;;;;4976646;28;20657;-76
2022/08/04 03:46:02;;;;;;;3.70;3.40;;;18.20;99.90;;;;;;4976558;28;20279;-75
2022/08/04 03:48:33;;;;;;;4.03;3.73;;;18.30;99.90;;;;;;4976296;28;20180;-75
2022/08/04 03:54:28;;;;;;;3.97;3.67;;;18.10;99.90;;;;;;4994057;28;20230;-75
2022/08/04 03:57:00;;;;;;;4.10;3.80;;;18.10;99.90;;;;;;4993670;28;20302;-75
2022/08/04 03:59:50;;;;;;;3.63;3.33;;;18.10;99.90;;;;;;4976274;28;20266;-75
2022/08/04 04:02:31;;;;;;;3.97;3.67;;;18.00;99.90;;;;;;4976436;28;20243;-75
2022/08/04 04:05:14;;;;;;;4.10;3.80;;;18.10;99.90;;;;;;4976150;28;20191;-76
2022/08/04 04:07:39;;;;;;;4.50;4.10;;;18.10;99.90;;;;;;4975950;28;20649;-75
2022/08/04 04:10:14;;;;;;;4.50;4.10;;;18.20;99.90;;;;;;4976012;28;20211;-75
2022/08/04 04:13:08;;;;;;;3.90;3.60;;;18.20;99.90;;;;;;4975447;28;20179;-77
2022/08/04 04:15:51;;;;;;;5.40;3.87;;;18.10;99.90;;;;;;4975922;28;20223;-78
2022/08/04 04:18:32;;;;;;;4.57;4.17;;;18.10;99.90;;;;;;4976093;28;20175;-77
2022/08/04 04:21:15;;;;;;;4.20;3.80;;;18.10;99.90;;;;;;4993439;28;20689;-78
2022/08/04 04:23:50;;;;;;;4.30;3.93;;;18.10;99.90;;;;;;4975858;28;20182;-78
2022/08/04 04:26:36;;;;;;;4.30;4.00;;;18.20;99.90;;;;;;4993042;28;20195;-77
2022/08/04 04:29:28;;;;;;;4.20;3.80;;;18.10;99.90;;;;;;4975912;28;20636;-78
2022/08/04 04:32:13;;;;;;;3.97;3.67;;;18.00;99.90;;;;;;4972669;28;20186;-78
2022/08/04 04:34:41;;;;;;;3.80;3.50;;;18.00;99.90;;;;;;4975520;28;20702;-77
2022/08/04 04:37:16;;;;;;;4.27;3.87;;;18.00;99.90;;;;;;4992999;28;20164;-78
2022/08/04 04:39:41;;;;;;;3.97;3.67;;;18.00;99.90;;;;;;4975628;28;20180;-78
2022/08/04 04:42:28;;;;;;;4.40;4.00;;;18.00;99.90;;;;;;4975566;28;20171;-77
2022/08/04 04:45:08;;;;;;;4.13;3.57;;;18.20;99.90;;;;;;4975498;28;20191;-78
2022/08/04 04:47:41;;;;;;;4.17;3.87;;;18.20;99.90;;;;;;4975578;28;20239;-79
2022/08/04 04:50:22;;;;;;;4.50;3.90;;;18.10;99.90;;;;;;4975412;28;20214;-77
2022/08/04 04:53:11;;;;;;;3.60;3.30;;;18.10;99.90;;;;;;4975573;28;20227;-78
2022/08/04 04:55:50;;;;;;;3.83;3.53;;;18.80;99.90;;;;;;4975301;28;20199;-78
2022/08/04 04:58:18;;;;;;;4.20;3.80;;;19.90;99.90;;;;;;4975424;28;20187;-78
2022/08/04 05:01:00;;;;;;;3.97;3.45;;;20.40;99.90;;;;;;4959345;28;20211;-78
2022/08/04 05:03:56;;;;;;;3.70;3.30;;;20.80;99.90;;;;;;4975391;28;20182;-78
2022/08/04 05:06:59;;;;;;;4.20;3.80;;;20.60;99.90;;;;;;4992900;28;20602;-78
2022/08/04 05:09:28;;;;;;;4.10;3.70;;;20.80;99.90;;;;;;4990762;28;20215;-78
2022/08/04 05:12:12;;;;;;;3.88;3.58;;;20.50;99.90;;;;;;4976285;28;20175;-78
2022/08/04 05:14:47;;;;;;;4.75;4.00;;;20.70;99.90;;;;;;4975691;28;20246;-78
2022/08/04 05:17:24;;;;;;;3.90;3.60;;;20.60;99.90;;;;;;4993107;28;20198;-78
2022/08/04 05:20:12;;;;;;;3.97;3.50;;;20.50;99.90;;;;;;4975996;28;20642;-78
2022/08/04 05:22:54;;;;;;;3.85;3.55;;;20.60;99.90;;;;;;4976277;28;20183;-77
2022/08/04 05:25:39;;;;;;;4.68;4.00;;;20.70;99.90;;;;;;4997186;28;20191;-77
2022/08/04 05:28:15;;;;;;;4.00;3.60;;;20.60;99.90;;;;;;4963016;28;20191;-78
2022/08/04 05:30:48;;;;;;;4.47;4.07;;;20.80;99.90;;;;;;4979024;28;20207;-78
2022/08/04 05:33:48;;;;;;;5.80;3.72;;;21.10;99.90;;;;;;4964060;28;20215;-78
2022/08/04 05:36:21;;;;;;;4.03;3.72;;;21.40;99.90;;;;;;4978916;28;20258;-78
2022/08/04 05:38:52;;;;;;;5.65;3.90;;;21.50;99.90;;;;;;4963019;28;20176;-77
2022/08/04 05:41:19;;;;;;;3.80;3.50;;;21.60;99.90;;;;;;4996557;28;20172;-79
2022/08/04 05:43:47;;;;;;;5.03;3.53;;;21.60;99.90;;;;;;4962976;28;20179;-78
2022/08/04 05:46:15;;;;;;;4.22;3.90;;;21.70;99.90;;;;;;4979466;28;20191;-78
2022/08/04 05:48:41;;;;;;;4.50;4.03;;;21.90;99.90;;;;;;4979363;28;20211;-78
2022/08/04 05:51:09;;;;;;;4.70;4.00;;;21.90;99.90;;;;;;4963312;28;20202;-78
2022/08/04 05:53:36;;;;;;;4.35;3.95;;;21.90;99.90;;;;;;4946799;28;20183;-78
2022/08/04 05:56:03;;;;;;;5.18;3.85;;;21.90;99.90;;;;;;4962495;28;20180;-78
2022/08/04 05:58:30;;;;;;;4.53;4.13;;;22.00;99.90;;;;;;4962740;28;20180;-78
2022/08/04 06:01:00;;;;;;;4.53;4.13;;;21.70;99.90;;;;;;4962322;28;20263;-77
2022/08/04 06:03:29;;;;;;;4.60;3.97;;;21.90;99.90;;;;;;4962784;28;20291;-78
2022/08/04 06:05:56;;;;;;;4.20;3.90;;;22.00;99.90;;;;;;4978308;28;20183;-78
2022/08/04 06:08:23;;;;;;;4.38;4.07;;;22.20;99.90;;;;;;4978196;28;20690;-76
2022/08/04 06:10:50;;;;;;;4.35;4.05;;;22.10;99.90;;;;;;4962616;28;20211;-75
2022/08/04 06:13:19;;;;;;;4.00;3.60;;;22.00;99.90;;;;;;4978470;28;20168;-77
2022/08/04 06:15:48;;;;;;;3.90;3.60;;;22.00;99.90;;;;;;5015983;23;20297;-77
2022/08/04 06:18:14;;;;;;;4.35;3.95;;;22.00;99.90;;;;;;5000880;28;20640;-78
2022/08/04 06:20:43;;;;;;;4.18;3.88;;;22.00;99.90;;;;;;5017261;28;20181;-78
2022/08/04 06:23:13;;;;;;;5.20;4.70;;;21.70;99.90;;;;;;5001052;28;20189;-77
2022/08/04 06:25:45;;;;;;;5.53;4.10;;;21.60;99.90;;;;;;5002308;28;20550;-77
2022/08/04 06:28:12;;;;;;;4.97;4.30;;;21.50;99.90;;;;;;4997313;28;20171;-78
2022/08/04 06:30:39;;;;;;;4.03;3.72;;;21.50;99.90;;;;;;4981330;28;20217;-77
2022/08/04 06:33:41;;;;;;;4.72;4.13;;;21.80;99.90;;;;;;4997543;28;20203;-77
2022/08/04 06:36:02;;;;;;;4.40;4.10;;;22.00;99.90;;;;;;4998292;28;20203;-78
2022/08/04 06:38:30;;;;;;;4.85;4.20;;;22.00;99.90;;;;;;4997270;28;20684;-78
2022/08/04 06:41:02;;;;;;;5.28;3.90;;;21.90;99.90;;;;;;4997318;28;20166;-78
2022/08/04 06:43:30;;;;;;;4.63;4.25;;;22.10;99.90;;;;;;4966598;28;20274;-78
2022/08/04 06:45:58;;;;;;;4.05;3.75;;;22.20;99.90;;;;;;4964857;28;20199;-78
2022/08/04 06:48:24;;;;;;;3.95;3.65;;;22.30;99.90;;;;;;4981108;28;20171;-77
2022/08/04 06:50:51;;;;;;;5.35;3.33;;;22.50;99.90;;;;;;4980831;28;20229;-77
2022/08/04 06:53:18;;;;;;;4.85;3.60;;;22.70;99.90;;;;;;4996929;28;20599;-77
2022/08/04 06:55:45;;;;;;;4.20;3.80;;;22.90;99.90;;;;;;4980856;28;20613;-77
2022/08/04 06:58:13;;;;;;;4.45;3.70;;;23.10;99.90;;;;;;4980742;28;20179;-77
2022/08/04 07:00:42;;;;;;;3.60;3.30;;;23.30;99.90;;;;;;4996786;28;20240;-77
2022/08/04 07:03:07;;;;;;;4.03;3.60;;;23.50;99.90;;;;;;4980928;28;20183;-77
2022/08/04 07:05:34;;;;;;;3.85;3.55;;;23.50;99.90;;;;;;4996672;28;20198;-77
2022/08/04 07:08:00;;;;;;;4.13;3.58;;;23.50;99.90;;;;;;4996425;28;20175;-77
2022/08/04 07:10:27;;;;;;;4.10;3.70;;;23.50;99.90;;;;;;4980541;28;20572;-77
2022/08/04 07:12:55;;;;;;;4.43;3.53;;;23.60;99.90;;;;;;4980480;28;20290;-78
2022/08/04 07:15:22;;;;;;;3.70;3.40;;;23.60;99.90;;;;;;4964659;28;20237;-78
2022/08/04 07:17:49;;;;;;;4.03;3.10;;;23.70;99.90;;;;;;4996347;28;20175;-77
2022/08/04 07:20:15;;;;;;;5.38;3.50;;;23.80;99.90;;;;;;4980334;28;20233;-77
2022/08/04 07:22:42;;;;;;;5.20;3.70;;;23.90;99.90;;;;;;4964330;28;20175;-76
2022/08/04 07:25:09;;;;;;;3.80;3.50;;;24.00;99.90;;;;;;4996372;28;20195;-77
2022/08/04 07:27:35;;;;;;;4.72;3.30;;;24.10;99.90;;;;;;4996127;28;20179;-77
2022/08/04 07:30:04;;;;;;;4.00;3.60;;;24.10;99.90;;;;;;4996337;28;20306;-77
2022/08/04 07:32:31;;;;;;;4.57;3.10;;;24.20;99.90;;;;;;4964207;28;20175;-77
2022/08/04 07:34:58;;;;;;;3.80;3.50;;;24.40;99.90;;;;;;4980130;28;20199;-77
2022/08/04 07:37:24;;;;;;;4.15;3.80;;;24.50;99.90;;;;;;4995444;28;20262;-77
2022/08/04 07:39:49;;;;;;;4.20;3.67;;;24.50;99.90;;;;;;5012799;28;20265;-77
2022/08/04 07:42:18;;;;;;;3.63;3.33;;;24.70;99.90;;;;;;5013328;28;20290;-78
2022/08/04 07:44:45;;;;;;;3.83;3.40;;;24.70;99.90;;;;;;4963869;28;20337;-78
2022/08/04 07:47:10;;;;;;;4.18;3.40;;;24.90;99.90;;;;;;4979931;28;20181;-77
2022/08/04 07:49:36;;;;;;;4.22;3.47;;;24.90;99.90;;;;;;4995916;28;20361;-78
2022/08/04 07:52:03;;;;;;;3.92;3.60;;;25.00;99.90;;;;;;5013480;28;20180;-77
2022/08/04 07:54:29;;;;;;;5.50;3.40;;;25.00;99.90;;;;;;4995847;28;20197;-77
2022/08/04 07:56:55;;;;;;;3.70;3.10;;;25.20;99.90;;;;;;4979403;28;20175;-78
2022/08/04 07:59:20;;;;;;;3.60;3.30;;;25.20;99.90;;;;;;4979668;28;20174;-78
2022/08/04 08:01:47;;;;;;;3.60;3.30;;;25.40;99.90;;;;;;4979760;28;20179;-77
2022/08/04 08:04:13;;;;;;;4.80;3.50;;;25.50;99.90;;;;;;4995608;28;20203;-77
2022/08/04 08:06:40;;;;;;;3.85;3.40;;;25.60;99.90;;;;;;4995391;28;20193;-77
2022/08/04 08:09:19;;;;;;;3.35;3.10;;;25.80;99.90;;;;;;4995766;28;20205;-77
2022/08/04 08:11:47;;;;;;;5.03;3.13;;;26.00;99.90;;;;;;4997593;28;20249;-78
2022/08/04 08:14:13;;;;;;;4.25;3.85;;;26.20;99.90;;;;;;4995342;28;20199;-78
2022/08/04 08:16:39;;;;;;;3.53;3.10;;;26.40;99.90;;;;;;4995265;28;20752;-78
2022/08/04 08:19:06;;;;;;;3.00;2.70;;;26.70;99.90;;;;;;4995266;28;20174;-77
2022/08/04 08:21:32;;;;;;;3.30;3.00;;;27.00;99.90;;;;;;4995439;28;20178;-78
2022/08/04 08:23:58;;;;;;;2.90;2.60;;;27.10;99.90;;;;;;5012909;28;20175;-77
2022/08/04 08:26:24;;;;;;;3.30;2.50;;;27.30;99.90;;;;;;4979320;28;20228;-78
2022/08/04 08:28:50;;;;;;;4.43;2.80;;;27.50;99.90;;;;;;4979171;28;20309;-78
2022/08/04 08:31:15;;;;;;;5.80;2.65;;;27.80;99.90;;;;;;4963012;28;20197;-78
2022/08/04 08:33:42;;;;;;;2.60;2.40;;;28.00;99.90;;;;;;4995372;28;20175;-78
2022/08/04 08:36:24;;;;;;;2.90;2.40;;;28.00;99.90;;;;;;4994829;28;20187;-78
2022/08/04 08:38:50;;;;;;;3.30;2.42;;;28.10;99.90;;;;;;4995243;28;20175;-78
2022/08/04 08:41:55;;;;;;;5.10;2.40;;;28.30;99.90;;;;;;4995120;28;20171;-78
2022/08/04 08:45:02;;;;;;;2.28;2.08;;;28.60;99.90;;;;;;4994771;28;20205;-78
2022/08/04 08:47:31;;;;;;;3.17;2.17;;;28.90;99.90;;;;;;4935608;29;20180;-78
2022/08/04 08:50:26;;;;;;;2.30;2.10;;;29.00;99.90;;;;;;4935723;29;20213;-78
2022/08/04 08:53:07;;;;;;;3.28;1.90;;;29.10;99.60;;;;;;4994666;28;20645;-77
2022/08/04 08:55:47;;;;;;;2.25;1.90;;;29.30;97.30;;;;;;4994832;28;20200;-78
2022/08/04 08:58:22;;;;;;;2.30;1.60;;;29.50;94.00;;;;;;5011823;28;20174;-78
2022/08/04 09:01:02;;;;;;;3.22;1.73;;;29.70;87.70;;;;;;4994819;28;20580;-78
2022/08/04 09:03:47;;;;;;;3.03;1.52;;;30.10;86.80;;;;;;4994728;28;20244;-78
2022/08/04 09:06:31;;;;;;;2.30;1.80;;;30.30;78.80;;;;;;5012072;28;20175;-77
2022/08/04 09:09:20;;;;;;;1.67;1.58;;;30.50;79.00;;;;;;4994704;28;20198;-77
2022/08/04 09:12:03;;;;;;;2.05;1.50;;;30.50;73.30;;;;;;4994849;28;20257;-78
2022/08/04 09:14:40;;;;;;;2.40;1.40;;;30.70;70.40;;;;;;4994459;28;20309;-78
2022/08/04 09:17:17;;;;;;;1.77;1.52;;;30.60;65.90;;;;;;4994662;28;20174;-78
2022/08/04 09:19:48;;;;;;;1.67;1.58;;;30.80;66.00;;;;;;5012184;28;20245;-78
2022/08/04 09:22:33;;;;;;;1.83;1.30;;;31.10;63.40;;;;;;4994636;28;20278;-78
2022/08/04 09:25:03;;;;;;;2.67;1.30;;;31.20;59.10;;;;;;5012253;28;20558;-78
2022/08/04 09:27:59;;;;;;;2.42;1.50;;;31.40;56.70;;;;;;4994329;28;20265;-78
2022/08/04 09:31:04;;;;;;;2.03;1.40;;;31.50;56.20;;;;;;4994374;28;20744;-78
2022/08/04 09:33:36;;;;;;;3.22;1.40;;;31.70;54.50;;;;;;5008984;28;20190;-78
2022/08/04 09:36:06;;;;;;;1.50;1.40;;;31.90;53.30;;;;;;4994307;28;20191;-78
2022/08/04 09:38:50;;;;;;;2.55;1.40;;;32.20;53.40;;;;;;4994331;28;20178;-78
2022/08/04 09:41:21;;;;;;;2.38;1.30;;;32.40;55.20;;;;;;4994750;28;20257;-78
2022/08/04 09:44:00;;;;;;;2.42;1.40;;;32.60;49.20;;;;;;4994355;28;20171;-78
2022/08/04 09:46:38;;;;;;;1.75;1.40;;;32.30;48.40;;;;;;5012242;28;20147;-78
2022/08/04 09:49:22;;;;;;;1.83;1.55;;;32.40;50.00;;;;;;4994001;28;20751;-78
2022/08/04 09:52:06;;;;;;;2.08;1.35;;;32.60;48.40;;;;;;4994569;28;20201;-78
2022/08/04 09:54:53;;;;;;;1.80;1.70;;;32.80;46.20;;;;;;5011983;28;20191;-78
2022/08/04 09:57:36;;;;;;;1.85;1.40;;;32.90;46.70;;;;;;4994058;28;20175;-77
2022/08/04 10:00:12;;;;;;;1.60;1.50;;;33.10;46.50;;;;;;5011961;28;20171;-78
2022/08/04 10:02:41;;;;;;;1.55;1.40;;;33.20;46.20;;;;;;4994572;28;20182;-77
2022/08/04 10:05:36;;;;;;;1.45;1.35;;;33.50;45.40;;;;;;4994187;28;20310;-78
2022/08/04 10:08:43;;;;;;;1.35;1.25;;;33.40;44.50;;;;;;4993999;28;20202;-78
2022/08/04 10:11:20;;;;;;;2.00;1.50;;;33.50;44.50;;;;;;4995758;28;20205;-78
2022/08/04 10:14:03;;;;;;;1.60;1.50;;;33.50;42.80;;;;;;4997856;28;20652;-78
2022/08/04 10:16:50;;;;;;;2.78;1.77;;;33.30;43.00;;;;;;4981340;28;20206;-78
2022/08/04 10:19:25;;;;;;;2.58;1.48;;;33.40;43.20;;;;;;5015106;28;20175;-78
2022/08/04 10:22:20;;;;;;;1.50;1.40;;;33.50;43.60;;;;;;5015118;28;20257;-78
2022/08/04 10:25:05;;;;;;;1.63;1.50;;;33.80;42.10;;;;;;4981268;28;20286;-78
2022/08/04 10:27:48;;;;;;;1.70;1.60;;;33.80;43.30;;;;;;4997265;28;20171;-78
2022/08/04 10:30:16;;;;;;;1.88;1.70;;;33.70;41.70;;;;;;5015014;28;20205;-78
2022/08/04 10:33:20;;;;;;;3.67;1.60;;;33.90;41.90;;;;;;4997317;28;20179;-78
2022/08/04 10:35:50;;;;;;;2.33;1.40;;;33.90;40.90;;;;;;5014827;28;20696;-78
2022/08/04 10:38:30;;;;;;;2.58;1.60;;;34.20;41.90;;;;;;4965534;28;20180;-78
2022/08/04 10:41:24;;;;;;;1.60;1.50;;;34.00;40.90;;;;;;4997693;28;20171;-78
2022/08/04 10:44:07;;;;;;;1.83;1.42;;;34.30;41.20;;;;;;4997797;28;20261;-78
2022/08/04 10:46:45;;;;;;;2.50;1.70;;;34.20;40.50;;;;;;4997084;28;20265;-77
2022/08/04 10:49:42;;;;;;;1.58;1.40;;;34.30;39.60;;;;;;4996978;28;20218;-78
2022/08/04 10:52:16;;;;;;;2.03;1.50;;;34.50;39.90;;;;;;5009945;28;20190;-79
2022/08/04 10:54:59;;;;;;;2.67;1.33;;;34.60;39.00;;;;;;4997009;28;20191;-78
2022/08/04 10:57:33;;;;;;;2.33;1.55;;;34.70;38.60;;;;;;4996879;28;20171;-78
2022/08/04 11:00:01;;;;;;;1.98;1.60;;;34.80;38.40;;;;;;5014383;28;20174;-78
2022/08/04 11:02:45;;;;;;;2.67;1.60;;;34.70;38.50;;;;;;4996804;28;20171;-78
2022/08/04 11:05:34;;;;;;;2.08;1.40;;;34.60;37.70;;;;;;4996739;28;20198;-78
2022/08/04 11:08:03;;;;;;;1.42;1.33;;;34.30;37.70;;;;;;4996904;28;20555;-79
2022/08/04 11:10:36;;;;;;;2.20;1.40;;;34.60;39.20;;;;;;5014290;28;20198;-77
2022/08/04 11:13:09;;;;;;;1.85;1.60;;;35.00;38.40;;;;;;4996720;28;20199;-78
2022/08/04 11:15:45;;;;;;;2.17;1.52;;;35.40;40.40;;;;;;4996496;28;20242;-78
2022/08/04 11:18:23;;;;;;;2.17;1.30;;;35.60;36.30;;;;;;4996489;28;20661;-78
2022/08/04 11:21:09;;;;;;;3.38;1.63;;;35.20;36.60;;;;;;4996450;28;20270;-78
2022/08/04 11:23:38;;;;;;;1.70;1.60;;;34.70;36.50;;;;;;5013964;28;20210;-78
2022/08/04 11:26:08;;;;;;;1.65;1.55;;;34.70;36.70;;;;;;4996258;28;20206;-78
2022/08/04 11:28:41;;;;;;;2.17;1.60;;;34.70;36.30;;;;;;4996465;28;20646;-78
2022/08/04 11:31:20;;;;;;;3.25;1.70;;;34.70;36.70;;;;;;4996328;28;20190;-78
2022/08/04 11:33:54;;;;;;;1.50;1.40;;;35.00;37.10;;;;;;5013863;28;20252;-78
2022/08/04 11:36:41;;;;;;;2.75;1.40;;;35.30;36.60;;;;;;4995957;28;20645;-78
2022/08/04 11:39:19;;;;;;;2.03;1.40;;;35.10;35.20;;;;;;4999093;28;20257;-79
2022/08/04 11:42:05;;;;;;;1.98;1.40;;;35.20;36.60;;;;;;4996124;28;20175;-79
2022/08/04 11:44:36;;;;;;;1.55;1.45;;;35.30;35.10;;;;;;4996194;28;20198;-79
2022/08/04 11:47:07;;;;;;;2.40;1.50;;;35.60;35.40;;;;;;4996152;28;20656;-79
2022/08/04 11:49:46;;;;;;;2.13;1.50;;;35.70;36.20;;;;;;4996701;28;20249;-79
2022/08/04 11:52:15;;;;;;;3.17;1.50;;;35.80;35.10;;;;;;4979711;28;20179;-79
2022/08/04 11:54:43;;;;;;;2.35;1.40;;;36.20;35.60;;;;;;4979615;28;20195;-79
2022/08/04 11:57:10;;;;;;;3.05;1.42;;;36.20;33.90;;;;;;4996034;28;20172;-79
2022/08/04 11:59:37;;;;;;;2.10;1.60;;;36.40;34.30;;;;;;4979732;28;20237;-79
2022/08/04 12:02:23;;;;;;;1.80;1.70;;;36.10;33.70;;;;;;5013376;28;20175;-79
2022/08/04 12:04:56;;;;;;;3.67;1.60;;;35.90;34.60;;;;;;4995630;28;20728;-78
2022/08/04 12:07:58;;;;;;;1.75;1.60;;;36.00;34.70;;;;;;4979492;28;20183;-79
2022/08/04 12:10:45;;;;;;;1.70;1.60;;;35.90;33.60;;;;;;4995526;28;20285;-79
2022/08/04 12:13:19;;;;;;;1.73;1.50;;;36.10;34.90;;;;;;4995730;28;20233;-79
2022/08/04 12:15:54;;;;;;;2.17;1.73;;;36.20;34.10;;;;;;4995907;28;20266;-76
2022/08/04 12:18:31;;;;;;;1.80;1.70;;;36.00;34.30;;;;;;4995495;28;20201;-77
2022/08/04 12:21:00;;;;;;;1.63;1.50;;;36.20;34.80;;;;;;4995577;28;20174;-76
2022/08/04 12:23:32;;;;;;;1.80;1.65;;;36.40;34.20;;;;;;4979031;28;20179;-77
2022/08/04 12:26:13;;;;;;;4.43;1.42;;;36.80;33.90;;;;;;4995272;28;20214;-74
2022/08/04 12:28:43;;;;;;;3.05;1.77;;;36.60;34.60;;;;;;4995384;28;20178;-75
2022/08/04 12:31:35;;;;;;;2.00;1.80;;;36.60;34.10;;;;;;4979493;28;20596;-74
2022/08/04 12:34:43;;;;;;;2.15;1.60;;;36.70;34.40;;;;;;5005232;28;20649;-75
2022/08/04 12:37:33;;;;;;;2.38;1.58;;;37.10;35.20;;;;;;4995194;28;20186;-74
2022/08/04 12:40:04;;;;;;;2.70;1.77;;;37.20;32.70;;;;;;4995068;28;20596;-75
2022/08/04 12:42:58;;;;;;;2.10;1.75;;;37.40;33.00;;;;;;4995110;28;20171;-74
2022/08/04 12:45:25;;;;;;;1.60;1.50;;;37.10;32.60;;;;;;4994896;28;20197;-75
2022/08/04 12:47:55;;;;;;;2.17;1.77;;;37.40;31.70;;;;;;5012371;28;20549;-74
2022/08/04 12:50:21;;;;;;;3.15;1.70;;;36.90;32.20;;;;;;4994690;28;20340;-74
2022/08/04 12:52:51;;;;;;;2.00;1.80;;;37.00;32.70;;;;;;4978827;28;20287;-75
2022/08/04 12:55:21;;;;;;;3.63;1.77;;;37.20;32.50;;;;;;4978845;28;20194;-75
2022/08/04 12:57:48;;;;;;;1.80;1.60;;;37.20;32.40;;;;;;4962824;28;20341;-74
2022/08/04 13:00:41;;;;;;;1.75;1.55;;;36.90;31.90;;;;;;4995097;28;20167;-75
2022/08/04 13:03:14;;;;;;;2.85;1.70;;;36.80;32.70;;;;;;4978431;28;20174;-75
2022/08/04 13:05:41;;;;;;;2.33;1.60;;;36.70;31.80;;;;;;4994771;28;20206;-75
2022/08/04 13:08:09;;;;;;;2.17;1.70;;;36.80;32.30;;;;;;4994522;28;20270;-75
2022/08/04 13:10:41;;;;;;;2.05;1.52;;;37.00;33.00;;;;;;5012121;28;20237;-74
2022/08/04 13:13:14;;;;;;;2.47;1.70;;;37.40;31.30;;;;;;4978589;28;20179;-74
2022/08/04 13:15:40;;;;;;;3.38;1.45;;;37.40;32.10;;;;;;4978285;28;20216;-75
2022/08/04 13:18:11;;;;;;;3.08;2.13;;;37.40;31.10;;;;;;4978148;28;20171;-75
2022/08/04 13:20:38;;;;;;;1.65;1.55;;;37.20;30.80;;;;;;4994533;28;20202;-75
2022/08/04 13:23:08;;;;;;;3.10;1.80;;;37.50;30.70;;;;;;4994690;28;20241;-75
2022/08/04 13:25:39;;;;;;;2.35;1.80;;;37.30;30.70;;;;;;4978352;28;20221;-75
2022/08/04 13:28:11;;;;;;;3.10;2.00;;;37.60;30.70;;;;;;5011807;28;20183;-74
2022/08/04 13:30:37;;;;;;;1.60;1.50;;;37.80;31.10;;;;;;4978887;28;20673;-75
2022/08/04 13:33:04;;;;;;;2.00;1.80;;;37.80;30.60;;;;;;4994459;28;20186;-75
2022/08/04 13:35:33;;;;;;;3.60;1.98;;;37.90;30.40;;;;;;4978338;28;20773;-75
2022/08/04 13:38:00;;;;;;;2.00;1.50;;;38.00;30.10;;;;;;4978277;28;20185;-75
2022/08/04 13:40:27;;;;;;;2.05;1.60;;;38.10;31.10;;;;;;4978352;28;20187;-74